Time;durP1;ratioP1;P1;durP2;ratioP2;P2;SDS_P1;SDS_P2;PMS_P1;PMS_P2;Temp;Humidity;BMP_temperature;BMP_pressure;BME280_temperature;BME280_humidity;BME280_pressure;Samples;Min_cycle;Max_cycle;Signal;HPM_P1;HPM_P2
2021/04/01 00:02:26;;;;;;;9.20;8.10;;;18.40;38.60;;;;;;5091155;28;20620;-53
2021/04/01 00:04:53;;;;;;;11.20;7.10;;;18.30;38.70;;;;;;5090675;28;20721;-52
2021/04/01 00:07:20;;;;;;;11.37;7.60;;;18.30;39.20;;;;;;5086318;28;20631;-52
2021/04/01 00:09:47;;;;;;;11.23;8.00;;;18.30;39.50;;;;;;5090479;28;20701;-52
2021/04/01 00:12:14;;;;;;;9.90;8.87;;;18.30;39.30;;;;;;5093540;28;21225;-52
2021/04/01 00:14:41;;;;;;;12.30;7.77;;;18.20;38.90;;;;;;5086941;28;20659;-52
2021/04/01 00:17:08;;;;;;;10.57;8.73;;;18.10;39.00;;;;;;5100916;28;20733;-52
2021/04/01 00:19:36;;;;;;;9.20;7.00;;;18.10;39.00;;;;;;5093919;28;21038;-53
2021/04/01 00:22:04;;;;;;;10.03;8.80;;;18.10;39.20;;;;;;5091174;28;20673;-51
2021/04/01 00:24:31;;;;;;;8.73;7.83;;;18.10;39.20;;;;;;5091219;28;21072;-51
2021/04/01 00:26:58;;;;;;;9.50;7.57;;;18.10;39.10;;;;;;5089203;28;20628;-51
2021/04/01 00:29:24;;;;;;;14.93;7.50;;;18.00;38.90;;;;;;5091211;28;20621;-51
2021/04/01 00:31:51;;;;;;;8.60;7.50;;;18.00;38.90;;;;;;5089170;28;20640;-52
2021/04/01 00:34:18;;;;;;;9.00;6.73;;;17.90;39.40;;;;;;5091536;28;20687;-51
2021/04/01 00:36:45;;;;;;;14.83;6.73;;;17.70;38.80;;;;;;5076166;28;20653;-52
2021/04/01 00:39:12;;;;;;;6.90;6.30;;;17.60;39.00;;;;;;5070852;28;20629;-52
2021/04/01 00:41:39;;;;;;;7.60;6.17;;;17.50;39.20;;;;;;5073419;28;20625;-51
2021/04/01 00:44:06;;;;;;;11.73;7.47;;;17.50;39.40;;;;;;5080286;28;20661;-52
2021/04/01 00:46:33;;;;;;;10.20;7.93;;;17.50;40.00;;;;;;5078246;28;20620;-52
2021/04/01 00:49:00;;;;;;;6.83;5.73;;;17.40;39.60;;;;;;5103512;28;20784;-52
2021/04/01 00:51:27;;;;;;;8.50;6.50;;;17.50;39.60;;;;;;5091604;28;21024;-52
2021/04/01 00:53:54;;;;;;;12.53;7.47;;;17.50;39.70;;;;;;5091433;28;20660;-52
2021/04/01 00:56:21;;;;;;;8.83;6.20;;;17.50;39.80;;;;;;5083026;28;20651;-52
2021/04/01 00:58:48;;;;;;;7.67;6.10;;;17.50;39.70;;;;;;5091030;28;20631;-52
2021/04/01 01:01:25;;;;;;;8.87;6.53;;;17.50;39.80;;;;;;5088263;28;20778;-52
2021/04/01 01:03:51;;;;;;;9.63;7.20;;;17.40;40.20;;;;;;5091277;28;20648;-52
2021/04/01 01:06:18;;;;;;;6.70;6.10;;;17.40;40.40;;;;;;5090872;28;20621;-51
2021/04/01 01:08:45;;;;;;;11.73;6.33;;;17.40;40.20;;;;;;5083821;28;20636;-52
2021/04/01 01:11:12;;;;;;;8.57;6.57;;;17.50;40.30;;;;;;5071643;28;20633;-52
2021/04/01 01:13:40;;;;;;;7.33;6.23;;;17.40;40.00;;;;;;5074124;28;20731;-52
2021/04/01 01:16:07;;;;;;;9.77;7.63;;;17.50;40.20;;;;;;5087891;28;20697;-52
2021/04/01 01:18:34;;;;;;;7.17;6.33;;;17.50;40.50;;;;;;5090770;28;21295;-53
2021/04/01 01:21:01;;;;;;;12.53;6.27;;;17.60;41.00;;;;;;5090810;28;20686;-52
2021/04/01 01:23:28;;;;;;;9.77;6.00;;;17.60;40.30;;;;;;5089411;28;20632;-52
2021/04/01 01:25:56;;;;;;;9.00;6.10;;;17.60;40.00;;;;;;5091152;28;21211;-52
2021/04/01 01:28:23;;;;;;;9.23;5.67;;;17.70;39.80;;;;;;5088647;28;20681;-51
2021/04/01 01:30:50;;;;;;;7.33;5.87;;;17.70;39.50;;;;;;5083359;28;20620;-52
2021/04/01 01:33:19;;;;;;;7.10;6.37;;;17.70;39.30;;;;;;5076928;28;20633;-52
2021/04/01 01:35:47;;;;;;;10.57;5.90;;;17.70;39.00;;;;;;5071501;28;20659;-52
2021/04/01 01:38:14;;;;;;;5.97;5.33;;;17.70;38.50;;;;;;5093740;28;21077;-52
2021/04/01 01:40:41;;;;;;;9.07;6.97;;;17.70;38.80;;;;;;5094578;28;20620;-52
2021/04/01 01:43:09;;;;;;;8.70;6.10;;;17.70;38.90;;;;;;5082175;28;20633;-52
2021/04/01 01:45:36;;;;;;;9.90;6.60;;;17.70;38.40;;;;;;5078030;28;21149;-52
2021/04/01 01:48:04;;;;;;;8.03;6.00;;;17.70;38.20;;;;;;5094652;28;20685;-53
2021/04/01 01:50:31;;;;;;;14.60;6.60;;;17.70;37.90;;;;;;5089453;28;20608;-53
2021/04/01 01:52:58;;;;;;;8.93;6.10;;;17.80;38.00;;;;;;5093391;28;20628;-52
2021/04/01 01:55:25;;;;;;;11.63;6.50;;;17.80;38.20;;;;;;5087995;28;20641;-52
2021/04/01 01:57:52;;;;;;;6.73;5.80;;;17.90;37.90;;;;;;5092036;28;20690;-52
2021/04/01 02:00:21;;;;;;;8.20;6.03;;;17.90;37.20;;;;;;5092382;28;20628;-53
2021/04/01 02:02:52;;;;;;;6.40;5.30;;;17.90;37.10;;;;;;5084348;28;20661;-52
2021/04/01 02:05:20;;;;;;;8.87;5.53;;;18.00;37.60;;;;;;5082003;28;21061;-52
2021/04/01 02:07:46;;;;;;;6.60;5.80;;;18.00;37.20;;;;;;5094113;28;20673;-52
2021/04/01 02:10:15;;;;;;;11.57;6.50;;;18.00;37.00;;;;;;5094320;28;20628;-52
2021/04/01 02:12:42;;;;;;;6.33;5.37;;;18.00;37.40;;;;;;5088780;28;20629;-51
2021/04/01 02:15:13;;;;;;;7.40;5.20;;;17.90;37.00;;;;;;5080527;28;20665;-52
2021/04/01 02:17:40;;;;;;;5.70;5.20;;;17.90;36.80;;;;;;5073669;28;20710;-51
2021/04/01 02:20:08;;;;;;;8.50;6.00;;;17.90;37.10;;;;;;5058306;28;20624;-51
2021/04/01 02:22:35;;;;;;;9.03;5.53;;;17.90;37.20;;;;;;5079585;28;20658;-51
2021/04/01 02:25:02;;;;;;;10.07;5.30;;;17.90;37.10;;;;;;5073604;28;20665;-51
2021/04/01 02:27:28;;;;;;;7.70;5.57;;;17.90;37.10;;;;;;5086590;28;20648;-52
2021/04/01 02:29:55;;;;;;;7.13;5.07;;;17.80;37.00;;;;;;5078516;28;20685;-52
2021/04/01 02:32:22;;;;;;;6.80;5.80;;;17.80;37.10;;;;;;5092680;28;20632;-51
2021/04/01 02:34:50;;;;;;;8.67;5.97;;;17.80;37.20;;;;;;5093471;28;20656;-51
2021/04/01 02:37:16;;;;;;;6.33;4.77;;;17.80;37.10;;;;;;5091177;28;20655;-51
2021/04/01 02:39:43;;;;;;;9.00;5.60;;;17.80;37.00;;;;;;5093251;28;20628;-51
2021/04/01 02:42:10;;;;;;;5.63;5.10;;;17.70;37.10;;;;;;5079524;28;20635;-52
2021/04/01 02:44:37;;;;;;;8.20;5.80;;;17.70;37.20;;;;;;5090994;28;21109;-52
2021/04/01 02:47:05;;;;;;;8.17;4.70;;;17.60;37.10;;;;;;5093878;28;20612;-51
2021/04/01 02:49:32;;;;;;;8.27;4.93;;;17.50;37.10;;;;;;5091119;28;21022;-52
2021/04/01 02:51:59;;;;;;;8.67;5.60;;;17.50;37.70;;;;;;5075817;28;20636;-52
2021/04/01 02:54:26;;;;;;;7.10;6.40;;;17.50;37.20;;;;;;5079125;28;20633;-52
2021/04/01 02:56:53;;;;;;;5.70;4.73;;;17.50;37.30;;;;;;5059878;28;20647;-52
2021/04/01 02:59:20;;;;;;;10.63;5.23;;;17.60;37.50;;;;;;5085138;28;20628;-52
2021/04/01 03:01:46;;;;;;;6.97;5.50;;;17.60;37.50;;;;;;5082651;28;20693;-52
2021/04/01 03:04:13;;;;;;;6.77;5.60;;;17.60;37.50;;;;;;5093011;28;20680;-52
2021/04/01 03:06:40;;;;;;;7.93;6.13;;;17.60;37.60;;;;;;5092623;28;20685;-52
2021/04/01 03:09:08;;;;;;;10.37;5.63;;;17.50;37.80;;;;;;5090100;28;20616;-52
2021/04/01 03:11:34;;;;;;;6.80;6.10;;;17.50;37.90;;;;;;5079479;28;20656;-52
2021/04/01 03:14:03;;;;;;;7.97;5.87;;;17.40;37.90;;;;;;5076134;28;20660;-52
2021/04/01 03:16:29;;;;;;;8.47;5.60;;;17.40;38.00;;;;;;5092915;28;20968;-51
2021/04/01 03:18:56;;;;;;;7.60;6.17;;;17.30;37.90;;;;;;5091165;28;20652;-52
2021/04/01 03:21:23;;;;;;;6.47;5.57;;;17.30;38.10;;;;;;5062788;28;20621;-52
2021/04/01 03:23:50;;;;;;;6.90;6.23;;;17.30;38.10;;;;;;5072584;28;20719;-52
2021/04/01 03:26:18;;;;;;;7.20;5.47;;;17.30;38.00;;;;;;5090032;28;20735;-52
2021/04/01 03:28:44;;;;;;;6.00;5.37;;;17.30;38.00;;;;;;5092343;28;21246;-52
2021/04/01 03:31:11;;;;;;;6.50;5.90;;;17.30;38.20;;;;;;5070240;28;21272;-52
2021/04/01 03:33:38;;;;;;;10.40;6.50;;;17.20;38.10;;;;;;5090243;28;21278;-52
2021/04/01 03:36:05;;;;;;;9.00;6.03;;;17.20;38.30;;;;;;5081991;28;20652;-52
2021/04/01 03:38:33;;;;;;;8.67;6.00;;;17.20;38.30;;;;;;5056332;28;20656;-51
2021/04/01 03:41:00;;;;;;;8.03;5.43;;;17.10;38.30;;;;;;5092373;28;21215;-51
2021/04/01 03:43:28;;;;;;;9.00;6.70;;;17.10;38.40;;;;;;5086390;28;20788;-51
2021/04/01 03:45:55;;;;;;;8.27;6.37;;;17.10;38.30;;;;;;5089523;28;21226;-51
2021/04/01 03:48:22;;;;;;;5.67;5.07;;;17.10;38.40;;;;;;5091833;28;21219;-52
2021/04/01 03:50:49;;;;;;;6.40;5.90;;;17.10;38.40;;;;;;5091798;28;20632;-51
2021/04/01 03:53:15;;;;;;;6.93;5.33;;;17.10;38.50;;;;;;5089628;28;20620;-52
2021/04/01 03:55:43;;;;;;;13.83;5.20;;;17.00;38.50;;;;;;5089958;28;20754;-52
2021/04/01 04:01:04;;;;;;;9.20;5.70;;;16.90;38.70;;;;;;5058003;28;20616;-51
2021/04/01 04:03:43;;;;;;;14.13;6.13;;;16.90;38.70;;;;;;5081693;28;20645;-51
2021/04/01 04:06:22;;;;;;;7.33;5.80;;;16.90;38.70;;;;;;5082315;28;20654;-51
2021/04/01 04:09:05;;;;;;;10.70;5.70;;;16.90;38.80;;;;;;5085951;28;20686;-51
2021/04/01 04:11:34;;;;;;;7.50;5.10;;;16.80;38.80;;;;;;5090581;28;20608;-51
2021/04/01 04:14:07;;;;;;;7.33;5.90;;;16.80;38.90;;;;;;5076984;28;20692;-52
2021/04/01 04:16:35;;;;;;;7.93;4.90;;;16.80;39.00;;;;;;5086566;28;20619;-52
2021/04/01 04:19:01;;;;;;;5.90;5.30;;;16.80;39.10;;;;;;5098407;28;20733;-52
2021/04/01 04:21:28;;;;;;;9.37;5.50;;;16.70;39.10;;;;;;5092113;28;20643;-52
2021/04/01 04:23:55;;;;;;;12.83;6.37;;;16.70;39.20;;;;;;5055648;28;20661;-53
2021/04/01 04:26:23;;;;;;;10.83;6.87;;;16.70;39.20;;;;;;5086994;28;20637;-52
2021/04/01 04:28:49;;;;;;;9.37;5.90;;;16.70;39.30;;;;;;5071149;28;20618;-52
2021/04/01 04:31:16;;;;;;;6.40;4.70;;;16.60;39.40;;;;;;5071265;28;20690;-53
2021/04/01 04:33:44;;;;;;;11.13;6.10;;;16.50;39.50;;;;;;5071278;28;20648;-52
2021/04/01 04:36:11;;;;;;;7.73;5.50;;;16.50;39.60;;;;;;5070991;28;20621;-52
2021/04/01 04:38:38;;;;;;;8.53;6.43;;;16.60;39.70;;;;;;5085457;28;20652;-52
2021/04/01 04:41:05;;;;;;;10.33;7.50;;;16.60;39.70;;;;;;5091638;28;20674;-52
2021/04/01 04:43:32;;;;;;;9.23;5.97;;;16.50;39.70;;;;;;5090951;28;20648;-53
2021/04/01 04:45:59;;;;;;;6.90;6.00;;;16.50;39.90;;;;;;5090415;28;20624;-52
2021/04/01 04:48:26;;;;;;;8.03;7.20;;;16.50;39.90;;;;;;5090676;28;21180;-52
2021/04/01 04:50:54;;;;;;;11.90;6.83;;;16.40;40.00;;;;;;5088666;28;20636;-53
2021/04/01 04:53:21;;;;;;;8.50;6.87;;;16.40;40.10;;;;;;5090365;28;20656;-52
2021/04/01 04:55:58;;;;;;;9.50;7.50;;;16.40;40.30;;;;;;5072829;28;20678;-53
2021/04/01 04:58:29;;;;;;;9.40;6.73;;;16.30;40.30;;;;;;5086861;28;20994;-53
2021/04/01 05:01:05;;;;;;;11.13;8.13;;;16.30;40.30;;;;;;5074534;28;20671;-52
2021/04/01 05:06:36;;;;;;;11.20;7.10;;;16.30;40.70;;;;;;5098279;28;20650;-52
2021/04/01 05:09:03;;;;;;;8.40;7.70;;;16.30;40.70;;;;;;5098895;28;20604;-53
2021/04/01 05:11:32;;;;;;;10.70;7.00;;;16.20;40.70;;;;;;5079020;28;20670;-52
2021/04/01 05:13:59;;;;;;;7.80;7.10;;;16.10;40.80;;;;;;5106735;28;20990;-51
2021/04/01 05:16:26;;;;;;;8.03;7.27;;;16.20;40.90;;;;;;5094355;28;20632;-52
2021/04/01 05:18:54;;;;;;;8.13;7.33;;;16.20;41.00;;;;;;5094900;28;20694;-51
2021/04/01 05:21:29;;;;;;;10.07;7.60;;;16.20;41.10;;;;;;5094368;28;20658;-52
2021/04/01 05:23:57;;;;;;;13.30;7.70;;;16.20;41.10;;;;;;5087155;28;20720;-51
2021/04/01 05:29:10;;;;;;;8.80;6.80;;;16.20;41.10;;;;;;5094611;28;21229;-52
2021/04/01 05:31:39;;;;;;;8.07;6.97;;;16.20;41.20;;;;;;5092534;28;20628;-52
2021/04/01 05:34:05;;;;;;;8.83;7.93;;;16.10;41.20;;;;;;5096603;28;20655;-52
2021/04/01 05:36:35;;;;;;;11.37;7.63;;;16.10;41.30;;;;;;5099701;28;20677;-52
2021/04/01 05:39:01;;;;;;;8.27;7.27;;;16.20;41.30;;;;;;5110991;28;20643;-52
2021/04/01 05:41:30;;;;;;;10.70;7.40;;;16.10;41.80;;;;;;5101507;28;20637;-52
2021/04/01 05:44:03;;;;;;;8.87;7.97;;;16.10;41.40;;;;;;5078614;28;20716;-52
2021/04/01 05:46:34;;;;;;;14.00;8.80;;;16.10;41.40;;;;;;5099112;28;21180;-52
2021/04/01 05:49:10;;;;;;;11.97;7.33;;;16.10;41.50;;;;;;5086607;28;20621;-52
2021/04/01 05:51:59;;;;;;;7.90;7.10;;;16.10;41.50;;;;;;5093553;28;20682;-52
2021/04/01 06:03:04;;;;;;;15.70;8.00;;;16.00;41.70;;;;;;5079981;28;20620;-51
2021/04/01 06:05:31;;;;;;;8.60;7.70;;;16.00;41.70;;;;;;5091113;28;20665;-51
2021/04/01 06:08:06;;;;;;;13.13;7.70;;;16.10;41.80;;;;;;5084661;28;20636;-54
2021/04/01 06:10:34;;;;;;;12.50;8.20;;;16.20;41.80;;;;;;5091617;28;20618;-51
2021/04/01 06:13:02;;;;;;;9.70;7.60;;;16.30;41.80;;;;;;5099789;28;21025;-52
2021/04/01 06:15:29;;;;;;;9.57;7.80;;;16.30;41.70;;;;;;5090497;28;20700;-52
2021/04/01 06:17:56;;;;;;;10.83;8.23;;;16.40;41.60;;;;;;5098195;28;20660;-52
2021/04/01 06:20:22;;;;;;;9.80;8.20;;;16.40;41.60;;;;;;5101268;28;20743;-53
2021/04/01 06:22:49;;;;;;;9.80;7.60;;;16.50;41.40;;;;;;5085604;28;20662;-53
2021/04/01 06:25:17;;;;;;;7.53;6.83;;;16.50;41.50;;;;;;5067803;28;20676;-51
2021/04/01 06:27:50;;;;;;;8.10;7.30;;;16.50;41.50;;;;;;5090765;28;20651;-51
2021/04/01 06:30:22;;;;;;;16.77;8.90;;;16.50;41.50;;;;;;5075671;28;20635;-51
2021/04/01 06:32:58;;;;;;;7.73;7.00;;;16.50;41.50;;;;;;5084116;28;20641;-53
2021/04/01 06:35:29;;;;;;;9.47;7.87;;;16.50;41.70;;;;;;5084268;28;20655;-52
2021/04/01 06:40:45;;;;;;;13.70;7.73;;;16.50;41.50;;;;;;5096725;28;21035;-52
2021/04/01 06:43:21;;;;;;;10.93;7.50;;;16.40;41.40;;;;;;5100671;28;20640;-53
2021/04/01 06:45:52;;;;;;;7.27;6.67;;;16.40;41.50;;;;;;5098196;28;21152;-52
2021/04/01 06:48:22;;;;;;;8.90;7.30;;;16.30;41.70;;;;;;5093073;28;20612;-52
2021/04/01 06:50:49;;;;;;;7.30;6.70;;;16.10;41.90;;;;;;5093057;28;21186;-53
2021/04/01 06:53:20;;;;;;;10.50;9.10;;;16.00;42.00;;;;;;5092394;28;20651;-53
2021/04/01 06:56:00;;;;;;;8.37;7.50;;;16.00;42.40;;;;;;5084068;28;21213;-53
2021/04/01 06:58:33;;;;;;;14.13;8.17;;;16.00;42.60;;;;;;5092167;28;20651;-52
2021/04/01 07:01:04;;;;;;;10.97;7.63;;;16.00;42.70;;;;;;5081502;28;20642;-52
2021/04/01 07:03:37;;;;;;;9.57;8.57;;;16.10;42.80;;;;;;5079975;28;20654;-52
2021/04/01 07:06:07;;;;;;;9.13;7.70;;;16.30;42.60;;;;;;5094206;28;21210;-52
2021/04/01 07:08:48;;;;;;;20.00;8.17;;;16.40;42.50;;;;;;5088790;28;20669;-52
2021/04/01 07:11:30;;;;;;;12.93;7.50;;;16.60;42.00;;;;;;5086747;28;21136;-52
2021/04/01 07:14:02;;;;;;;7.83;6.90;;;16.80;41.70;;;;;;5097082;28;20708;-52
2021/04/01 07:16:37;;;;;;;10.13;9.10;;;16.90;41.50;;;;;;5099087;28;20620;-52
2021/04/01 07:19:23;;;;;;;8.63;7.80;;;17.10;41.40;;;;;;5092457;28;20660;-52
2021/04/01 07:46:40;;;;;;;14.60;8.87;;;17.80;41.20;;;;;;5092779;28;20650;-53
2021/04/01 07:49:23;;;;;;;11.33;8.73;;;17.90;40.80;;;;;;5092188;28;20619;-54
2021/04/01 07:52:05;;;;;;;8.57;7.77;;;18.20;40.90;;;;;;5092388;28;21243;-54
2021/04/01 07:54:57;;;;;;;14.70;8.23;;;18.50;40.60;;;;;;5092350;28;20660;-53
2021/04/01 07:57:48;;;;;;;11.83;9.83;;;18.70;40.20;;;;;;5091571;28;20697;-53
2021/04/01 08:00:18;;;;;;;12.50;8.43;;;18.90;39.80;;;;;;5089549;28;20620;-53
2021/04/01 08:02:59;;;;;;;9.57;8.37;;;19.20;39.30;;;;;;5071958;28;21032;-53
2021/04/01 08:05:28;;;;;;;12.53;9.40;;;19.00;39.20;;;;;;5071685;28;21220;-54
2021/04/01 08:07:57;;;;;;;9.90;8.90;;;18.90;39.70;;;;;;5071445;28;20657;-53
2021/04/01 08:10:28;;;;;;;11.47;9.70;;;19.00;39.80;;;;;;5084075;28;21200;-52
2021/04/01 08:13:00;;;;;;;13.57;10.50;;;19.10;39.90;;;;;;5080820;28;21177;-53
2021/04/01 08:15:30;;;;;;;13.07;9.57;;;19.20;39.80;;;;;;5073296;28;21289;-53
2021/04/01 08:18:04;;;;;;;11.57;10.33;;;19.40;39.60;;;;;;5070405;28;20970;-53
2021/04/01 08:20:32;;;;;;;12.00;8.43;;;19.60;39.20;;;;;;5070915;28;21266;-53
2021/04/01 08:23:05;;;;;;;11.23;8.60;;;19.70;39.00;;;;;;5070686;28;20621;-53
2021/04/01 08:25:37;;;;;;;9.90;8.33;;;19.80;38.90;;;;;;5071190;28;21065;-53
2021/04/01 08:28:16;;;;;;;11.70;9.70;;;19.90;38.90;;;;;;5070638;28;20633;-53
2021/04/01 08:33:35;;;;;;;16.20;8.63;;;20.00;39.00;;;;;;5071205;28;20617;-52
2021/04/01 08:36:02;;;;;;;9.60;8.70;;;20.20;39.00;;;;;;5070888;28;20621;-53
2021/04/01 08:38:29;;;;;;;11.40;8.70;;;20.30;38.80;;;;;;5070758;28;20641;-52
2021/04/01 08:40:57;;;;;;;11.60;8.00;;;20.40;38.80;;;;;;5071185;28;20625;-53
2021/04/01 08:43:45;;;;;;;10.83;8.40;;;20.50;38.90;;;;;;5070611;28;21242;-53
2021/04/01 08:46:52;;;;;;;12.70;9.67;;;20.60;38.60;;;;;;5052428;28;20994;-54
2021/04/01 08:49:25;;;;;;;11.37;9.23;;;20.80;38.40;;;;;;5065476;28;20621;-52
2021/04/01 08:52:45;;;;;;;14.10;10.10;;;20.90;38.20;;;;;;5071390;28;20696;-52
2021/04/01 08:55:14;;;;;;;13.40;9.70;;;21.00;38.20;;;;;;5070768;28;20669;-52
2021/04/01 08:57:53;;;;;;;11.13;8.33;;;21.20;37.70;;;;;;5070897;28;21067;-52
2021/04/01 09:00:20;;;;;;;13.27;10.60;;;21.10;37.40;;;;;;5070830;28;21004;-52
2021/04/01 09:02:48;;;;;;;14.57;11.03;;;21.10;38.10;;;;;;5052366;28;20636;-53
2021/04/01 09:05:16;;;;;;;11.87;9.80;;;21.20;37.70;;;;;;5052760;28;20653;-51
2021/04/01 09:07:45;;;;;;;11.70;10.60;;;21.20;37.70;;;;;;5070689;28;21173;-53
2021/04/01 09:10:16;;;;;;;10.40;9.30;;;21.30;37.30;;;;;;5070899;28;20625;-51
2021/04/01 09:12:47;;;;;;;11.73;10.50;;;21.40;36.90;;;;;;5071069;28;20625;-52
2021/04/01 09:15:22;;;;;;;11.13;9.87;;;21.40;36.90;;;;;;5086499;28;20656;-52
2021/04/01 09:17:49;;;;;;;11.67;10.53;;;21.40;37.00;;;;;;5090766;28;20619;-52
2021/04/01 09:20:18;;;;;;;13.53;10.87;;;21.60;37.10;;;;;;5090954;28;20713;-53
2021/04/01 09:22:46;;;;;;;14.23;10.67;;;21.60;37.10;;;;;;5090430;28;21234;-54
2021/04/01 09:25:13;;;;;;;11.60;10.33;;;21.80;37.00;;;;;;5090185;28;20663;-53
2021/04/01 09:27:47;;;;;;;12.63;9.47;;;21.80;36.70;;;;;;5090349;28;20616;-51
2021/04/01 09:30:15;;;;;;;14.23;10.60;;;21.80;36.80;;;;;;5090262;28;21233;-54
2021/04/01 09:32:42;;;;;;;15.37;9.80;;;21.90;36.80;;;;;;5090730;28;20625;-51
2021/04/01 09:35:10;;;;;;;11.87;10.40;;;21.90;36.80;;;;;;5090368;28;20728;-52
2021/04/01 09:37:50;;;;;;;12.43;10.10;;;21.80;36.80;;;;;;5090381;28;20630;-52
2021/04/01 09:40:17;;;;;;;15.70;13.20;;;21.60;36.90;;;;;;5090174;28;21265;-52
2021/04/01 09:42:46;;;;;;;14.70;11.67;;;21.60;37.00;;;;;;5090356;28;20632;-52
2021/04/01 09:45:26;;;;;;;14.57;11.20;;;21.70;36.70;;;;;;5090264;28;20656;-52
2021/04/01 09:47:54;;;;;;;13.03;11.37;;;22.00;35.40;;;;;;5090247;28;20645;-52
2021/04/01 09:50:21;;;;;;;14.33;11.80;;;22.00;34.90;;;;;;5091232;28;20682;-52
2021/04/01 09:52:58;;;;;;;14.17;11.73;;;22.00;35.20;;;;;;5090547;28;20636;-53
2021/04/01 09:55:25;;;;;;;15.43;13.23;;;22.00;35.20;;;;;;5090734;28;21232;-52
2021/04/01 09:57:53;;;;;;;16.07;12.47;;;21.90;35.00;;;;;;5091097;28;21184;-53
2021/04/01 10:00:31;;;;;;;16.60;12.40;;;22.00;35.50;;;;;;5076316;28;21043;-55
2021/04/01 10:03:05;;;;;;;22.00;13.13;;;22.10;35.80;;;;;;5095032;28;20616;-53
2021/04/01 10:05:34;;;;;;;14.93;13.27;;;22.20;36.00;;;;;;5093664;28;20650;-52
2021/04/01 10:08:02;;;;;;;17.43;13.80;;;22.40;35.90;;;;;;5094078;28;20637;-53
2021/04/01 10:10:37;;;;;;;18.23;14.33;;;22.60;35.30;;;;;;5074610;28;20652;-53
2021/04/01 10:13:18;;;;;;;15.80;13.53;;;22.80;34.90;;;;;;5093176;28;21133;-53
2021/04/01 10:15:45;;;;;;;20.03;17.03;;;22.90;34.70;;;;;;5093773;28;20735;-53
2021/04/01 10:18:14;;;;;;;18.67;16.13;;;23.20;34.30;;;;;;5093423;28;20636;-53
2021/04/01 10:20:46;;;;;;;18.83;14.80;;;23.30;34.00;;;;;;5092009;28;20680;-53
2021/04/01 10:23:16;;;;;;;21.60;16.53;;;23.40;33.80;;;;;;5091888;28;20635;-51
2021/04/01 10:25:55;;;;;;;26.03;16.67;;;23.50;34.00;;;;;;5123631;22;21232;-54
2021/04/01 10:31:15;;;;;;;22.83;17.17;;;24.30;33.70;;;;;;5093452;28;20624;-55
2021/04/01 10:34:18;;;;;;;21.57;16.37;;;24.50;33.50;;;;;;5095059;28;20597;-53
2021/04/01 10:36:58;;;;;;;22.70;17.50;;;24.90;33.20;;;;;;5094408;28;20638;-56
2021/04/01 10:39:27;;;;;;;21.60;18.77;;;25.40;32.50;;;;;;5094885;28;20642;-55
2021/04/01 10:41:56;;;;;;;21.43;18.97;;;25.70;31.70;;;;;;5093645;28;20623;-53
2021/04/01 10:44:35;;;;;;;22.13;18.27;;;26.00;31.20;;;;;;5094416;28;21203;-55
2021/04/01 10:47:04;;;;;;;23.80;21.30;;;26.20;30.70;;;;;;5093844;28;20651;-53
2021/04/01 10:49:32;;;;;;;24.87;19.50;;;26.40;30.70;;;;;;5076262;28;20621;-55
2021/04/01 10:52:03;;;;;;;29.30;20.97;;;26.60;30.10;;;;;;5094484;28;21205;-52
2021/04/01 10:54:36;;;;;;;27.90;23.47;;;26.40;30.10;;;;;;5093673;28;20647;-54
2021/04/01 10:57:04;;;;;;;31.07;23.73;;;26.50;30.30;;;;;;5093675;28;20623;-53
2021/04/01 10:59:35;;;;;;;29.27;26.20;;;26.80;29.80;;;;;;5075002;28;20671;-53
2021/04/01 11:02:03;;;;;;;28.23;25.40;;;27.10;29.50;;;;;;5093552;28;20693;-54
2021/04/01 11:04:33;;;;;;;30.40;26.47;;;27.30;29.30;;;;;;5074973;28;20656;-53
2021/04/01 11:07:16;;;;;;;25.53;22.67;;;27.40;29.20;;;;;;5092968;28;20640;-53
2021/04/01 11:09:54;;;;;;;29.97;26.13;;;27.30;29.00;;;;;;5075152;28;20600;-54
2021/04/01 11:12:24;;;;;;;28.17;25.27;;;27.00;29.10;;;;;;5094117;28;20596;-53
2021/04/01 11:14:54;;;;;;;30.97;27.87;;;26.90;29.20;;;;;;5074583;28;20656;-56
2021/04/01 11:17:24;;;;;;;30.33;26.37;;;26.80;29.50;;;;;;5091857;28;20624;-55
2021/04/01 11:19:53;;;;;;;30.50;27.23;;;26.90;29.20;;;;;;5073822;28;20747;-53
2021/04/01 11:22:23;;;;;;;28.20;25.30;;;27.10;29.30;;;;;;5092538;28;20646;-54
2021/04/01 11:25:09;;;;;;;33.10;26.97;;;27.40;29.10;;;;;;5074860;28;20685;-55
2021/04/01 11:27:37;;;;;;;38.10;27.80;;;27.60;28.70;;;;;;5093575;28;20738;-51
2021/04/01 11:30:11;;;;;;;29.83;26.57;;;27.80;28.40;;;;;;5093997;28;20674;-55
2021/04/01 11:32:43;;;;;;;30.40;25.27;;;27.70;28.30;;;;;;5074055;28;20711;-55
2021/04/01 11:35:13;;;;;;;32.00;28.63;;;27.60;28.80;;;;;;5091243;28;20679;-53
2021/04/01 11:37:45;;;;;;;33.10;27.83;;;27.50;28.50;;;;;;5091063;28;20624;-55
2021/04/01 11:40:15;;;;;;;29.87;26.77;;;27.50;28.50;;;;;;5091398;28;20662;-54
2021/04/01 11:42:54;;;;;;;30.30;27.10;;;27.80;28.40;;;;;;5073238;28;21167;-54
2021/04/01 11:45:34;;;;;;;31.17;24.37;;;28.30;28.00;;;;;;5070902;28;20740;-52
2021/04/01 11:48:11;;;;;;;25.87;23.07;;;28.90;26.80;;;;;;5072671;28;20624;-53
2021/04/01 11:50:39;;;;;;;30.17;25.50;;;29.00;26.70;;;;;;5091670;28;20632;-54
2021/04/01 11:53:08;;;;;;;29.97;25.20;;;28.80;26.90;;;;;;5090936;28;21188;-54
2021/04/01 11:55:36;;;;;;;30.83;25.27;;;28.40;27.20;;;;;;5073258;28;20697;-53
2021/04/01 11:58:03;;;;;;;27.73;24.93;;;28.30;27.40;;;;;;5090550;28;21019;-54
2021/04/01 12:00:36;;;;;;;29.20;25.97;;;28.40;26.90;;;;;;5092148;28;20651;-53
2021/04/01 12:03:12;;;;;;;27.87;23.87;;;28.70;27.00;;;;;;5092812;28;20669;-55
2021/04/01 12:05:42;;;;;;;27.03;23.80;;;29.10;26.50;;;;;;5091517;28;20667;-54
2021/04/01 12:08:09;;;;;;;28.33;25.33;;;29.30;26.20;;;;;;5090110;28;21253;-52
2021/04/01 12:10:38;;;;;;;27.10;24.27;;;29.60;26.70;;;;;;5090535;28;21009;-54
2021/04/01 12:13:06;;;;;;;25.57;21.83;;;29.90;25.90;;;;;;5073106;28;20620;-55
2021/04/01 12:15:33;;;;;;;29.90;21.93;;;30.10;25.30;;;;;;5089547;28;20702;-52
2021/04/01 12:18:01;;;;;;;26.50;22.67;;;30.20;24.60;;;;;;5091224;28;20628;-55
2021/04/01 12:20:28;;;;;;;26.07;22.60;;;30.10;24.70;;;;;;5089597;28;20652;-54
2021/04/01 12:23:11;;;;;;;27.07;21.20;;;29.90;24.40;;;;;;5089533;28;20636;-54
2021/04/01 12:25:43;;;;;;;24.03;21.53;;;29.60;24.20;;;;;;5075941;28;20668;-54
2021/04/01 12:28:17;;;;;;;28.53;22.43;;;29.50;24.50;;;;;;5090594;28;20612;-53
2021/04/01 12:30:46;;;;;;;21.80;18.30;;;29.40;24.70;;;;;;5091213;28;20625;-52
2021/04/01 12:33:16;;;;;;;26.33;19.30;;;29.50;24.40;;;;;;5090494;28;20913;-55
2021/04/01 12:35:52;;;;;;;22.93;18.20;;;29.50;24.20;;;;;;5090718;28;20697;-53
2021/04/01 12:38:28;;;;;;;27.73;18.73;;;29.70;23.80;;;;;;5088490;28;21218;-54
2021/04/01 12:40:56;;;;;;;24.60;20.87;;;29.90;23.90;;;;;;5090823;28;20688;-54
2021/04/01 12:43:30;;;;;;;28.07;20.43;;;30.10;23.30;;;;;;5071171;28;20624;-55
2021/04/01 12:48:52;;;;;;;22.80;20.30;;;30.90;23.20;;;;;;5062851;28;20651;-53
2021/04/01 12:51:20;;;;;;;21.83;19.53;;;31.10;23.00;;;;;;5079753;28;20656;-54
2021/04/01 12:54:02;;;;;;;24.80;19.90;;;31.20;22.90;;;;;;5072480;28;20616;-54
2021/04/01 12:56:33;;;;;;;24.80;18.43;;;31.10;22.90;;;;;;5073632;28;20774;-53
2021/04/01 12:59:04;;;;;;;22.07;19.50;;;30.80;22.70;;;;;;5089353;28;21188;-53
2021/04/01 13:01:33;;;;;;;23.70;20.53;;;30.40;23.00;;;;;;5089803;28;21172;-52
2021/04/01 13:04:04;;;;;;;22.77;18.70;;;30.00;23.30;;;;;;5090053;28;20698;-52
2021/04/01 13:09:26;;;;;;;24.30;19.50;;;30.10;23.40;;;;;;5088092;28;20624;-54
2021/04/01 13:11:54;;;;;;;21.43;18.90;;;30.30;23.40;;;;;;5072094;28;20651;-56
2021/04/01 13:14:24;;;;;;;22.47;18.67;;;30.60;23.30;;;;;;5089707;28;20720;-55
2021/04/01 13:17:01;;;;;;;28.13;19.30;;;31.10;22.70;;;;;;5091126;28;20591;-55
2021/04/01 13:19:29;;;;;;;21.63;17.53;;;31.30;22.20;;;;;;5090062;28;20664;-54
2021/04/01 13:22:06;;;;;;;23.77;21.23;;;31.20;22.30;;;;;;5089963;28;20632;-54
2021/04/01 13:27:24;;;;;;;22.53;17.57;;;31.90;21.80;;;;;;5087581;28;21251;-53
2021/04/01 13:29:55;;;;;;;19.90;17.93;;;32.20;21.60;;;;;;5090240;28;20680;-56
2021/04/01 13:32:34;;;;;;;20.80;17.70;;;32.60;21.60;;;;;;5071474;28;20624;-53
2021/04/01 13:35:05;;;;;;;15.90;14.23;;;32.90;21.10;;;;;;5075992;28;20652;-54
2021/04/01 13:37:58;;;;;;;19.20;13.20;;;33.10;20.10;;;;;;5094008;28;20681;-57
2021/04/01 13:40:28;;;;;;;14.07;11.57;;;33.00;19.60;;;;;;5095785;28;20648;-53
2021/04/01 13:42:58;;;;;;;14.50;11.37;;;33.10;19.30;;;;;;5076590;28;20617;-55
2021/04/01 13:45:31;;;;;;;14.70;11.00;;;33.00;19.30;;;;;;5092349;28;20659;-53
2021/04/01 13:48:03;;;;;;;17.73;12.17;;;32.80;19.30;;;;;;5093080;28;20930;-54
2021/04/01 13:50:33;;;;;;;15.30;11.47;;;32.40;19.60;;;;;;5093477;28;20628;-55
2021/04/01 13:53:22;;;;;;;15.93;12.20;;;32.20;19.80;;;;;;5094091;28;20624;-54
2021/04/01 13:55:52;;;;;;;13.33;12.03;;;32.20;19.90;;;;;;5075532;28;20643;-53